createdAt,value
2022-11-08T00:03:21.578Z,7.85
2022-11-08T00:08:38.513Z,7.76
2022-11-08T00:13:55.885Z,7.76
2022-11-08T00:19:12.126Z,7.83
2022-11-08T00:22:58.164Z,7.83
2022-11-08T00:28:06.611Z,7.77
2022-11-08T00:33:15.750Z,7.77
2022-11-08T00:38:24.213Z,8.01
2022-11-08T00:43:33.970Z,8.01
2022-11-08T00:48:43.727Z,7.79
2022-11-08T00:53:52.224Z,7.81
2022-11-08T00:59:01.978Z,7.81
2022-11-08T01:04:09.881Z,7.83
2022-11-08T01:09:18.296Z,7.83
2022-11-08T01:14:27.402Z,7.77
2022-11-08T01:19:36.530Z,7.77
2022-11-08T01:24:46.304Z,8.01
2022-11-08T01:29:54.800Z,8.01
2022-11-08T01:35:04.531Z,7.87
2022-11-08T01:40:14.326Z,7.87
2022-11-08T01:45:23.236Z,7.79
2022-11-08T01:50:39.559Z,7.79
2022-11-08T01:55:57.008Z,7.65
2022-11-08T02:01:15.114Z,7.65
2022-11-08T02:06:31.882Z,7.69
2022-11-08T02:11:47.564Z,7.69
2022-11-08T02:17:03.408Z,7.75
2022-11-08T02:22:19.564Z,7.75
2022-11-08T02:27:38.279Z,7.69
2022-11-08T02:32:54.594Z,7.69
2022-11-08T02:38:11.565Z,7.75
2022-11-08T02:43:28.835Z,7.75
2022-11-08T02:48:50.671Z,7.7
2022-11-08T02:54:01.375Z,7.7
2022-11-08T02:59:18.607Z,7.87
2022-11-08T03:03:44.730Z,7.87
2022-11-08T03:08:12.044Z,7.75
2022-11-08T03:13:30.290Z,7.75
2022-11-08T03:18:47.262Z,7.75
2022-11-08T03:24:05.955Z,7.75
2022-11-08T03:29:23.772Z,7.88
2022-11-08T03:34:41.270Z,7.88
2022-11-08T03:39:58.609Z,7.84
2022-11-08T03:44:25.581Z,7.84
2022-11-08T03:48:59.780Z,7.66
2022-11-08T03:54:08.210Z,7.66
2022-11-08T03:59:17.994Z,7.78
2022-11-08T04:04:27.732Z,7.81
2022-11-08T04:09:38.769Z,7.81
2022-11-08T04:14:48.543Z,7.84
2022-11-08T04:19:58.291Z,7.84
2022-11-08T04:25:38.224Z,8.01
2022-11-08T04:30:17.201Z,8.01
2022-11-08T04:35:26.289Z,8.14
2022-11-08T04:40:36.047Z,8.14
2022-11-08T04:45:45.192Z,7.9
2022-11-08T04:50:58.616Z,7.9
2022-11-08T04:56:12.867Z,8.1
2022-11-08T05:01:28.154Z,8.1
2022-11-08T05:06:43.898Z,8.01
2022-11-08T05:11:59.421Z,8.01
2022-11-08T05:17:15.580Z,7.81
2022-11-08T05:22:30.454Z,7.81
2022-11-08T05:27:47.258Z,7.85
2022-11-08T05:33:03.416Z,7.85
2022-11-08T05:38:19.311Z,7.78
2022-11-08T05:43:39.447Z,7.78
2022-11-08T05:48:50.644Z,7.84
2022-11-08T05:54:05.500Z,7.84
2022-11-08T05:59:21.015Z,7.8
2022-11-08T06:04:35.942Z,7.8
2022-11-08T06:08:10.776Z,7.92
2022-11-08T06:13:26.326Z,7.92
2022-11-08T06:18:42.462Z,7.83
2022-11-08T06:23:57.978Z,7.83
2022-11-08T06:29:13.526Z,7.7
2022-11-08T06:34:29.023Z,7.7
2022-11-08T06:39:45.825Z,7.75
2022-11-08T06:45:01.981Z,7.75
2022-11-08T06:50:16.864Z,7.82
2022-11-08T06:55:32.381Z,7.82
2022-11-08T07:00:47.930Z,7.76
2022-11-08T07:06:02.796Z,7.76
2022-11-08T07:11:18.302Z,7.69
2022-11-08T07:15:43.181Z,7.74
2022-11-08T07:20:58.698Z,7.74
2022-11-08T07:25:28.525Z,7.62
2022-11-08T07:30:38.282Z,7.62
2022-11-08T07:35:48.055Z,7.75
2022-11-08T07:40:56.545Z,7.75
2022-11-08T07:46:05.013Z,7.6
2022-11-08T07:51:14.764Z,7.6
2022-11-08T07:56:24.608Z,7.62
2022-11-08T08:01:34.065Z,7.62
2022-11-08T08:06:43.409Z,7.65
2022-11-08T08:11:54.429Z,7.65
2022-11-08T08:17:02.936Z,7.6
2022-11-08T08:22:12.695Z,7.6
2022-11-08T08:27:21.847Z,7.69
2022-11-08T08:32:32.285Z,7.69
2022-11-08T08:37:40.700Z,7.71
2022-11-08T08:42:50.433Z,7.71
2022-11-08T08:48:06.924Z,7.65
2022-11-08T08:53:24.362Z,7.65
2022-11-08T08:58:42.330Z,7.63
2022-11-08T09:03:59.945Z,7.63
2022-11-08T09:09:16.681Z,7.76
2022-11-08T09:14:33.661Z,7.76
2022-11-08T09:19:54.474Z,7.82
2022-11-08T09:25:08.510Z,7.82
2022-11-08T09:30:24.579Z,7.71
2022-11-08T09:40:07.693Z,7.7
2022-11-08T09:44:37.977Z,7.7
2022-11-08T09:49:47.767Z,7.83
2022-11-08T09:54:57.029Z,7.83
2022-11-08T10:00:05.378Z,7.63
2022-11-08T10:05:14.038Z,7.63
2022-11-08T10:10:23.574Z,7.91
2022-11-08T10:15:32.723Z,7.91
2022-11-08T10:20:42.439Z,7.67
2022-11-08T10:25:52.201Z,7.83
2022-11-08T10:31:00.748Z,7.83
2022-11-08T10:36:10.479Z,7.7
2022-11-08T10:41:20.247Z,7.7
2022-11-08T10:46:29.317Z,7.7
2022-11-08T10:51:37.793Z,7.7
2022-11-08T10:56:46.952Z,7.69
2022-11-08T11:01:56.341Z,7.69
2022-11-08T11:07:10.209Z,7.72
2022-11-08T11:12:27.551Z,7.72
2022-11-08T11:17:45.078Z,7.8
2022-11-08T11:24:10.472Z,7.8
2022-11-08T11:31:59.421Z,7.7
2022-11-08T11:38:56.846Z,7.74
2022-11-08T11:44:20.702Z,7.74
2022-11-08T11:49:31.774Z,7.89
2022-11-08T11:54:49.185Z,7.89
2022-11-08T12:01:30.691Z,7.92
2022-11-08T12:02:10.466Z,7.92
2022-11-08T12:07:06.427Z,7.96
2022-11-08T12:14:15.747Z,7.96
2022-11-08T12:21:11.724Z,8.04
2022-11-08T12:27:07.108Z,8.04
2022-11-08T12:28:00.576Z,8.04
2022-11-08T12:33:02.322Z,8.04
2022-11-08T12:42:19.555Z,8.07
2022-11-08T12:47:35.885Z,8.2
2022-11-08T12:52:52.513Z,8.2
2022-11-08T12:53:42.507Z,8.2
2022-11-08T12:58:11.242Z,8.11
2022-11-08T12:59:01.239Z,8.11
2022-11-08T13:03:28.841Z,8.11
2022-11-08T13:04:18.849Z,8.11
2022-11-08T13:08:45.639Z,7.97
2022-11-08T13:09:35.637Z,7.97
2022-11-08T13:14:02.272Z,7.97
2022-11-08T13:24:45.822Z,8.05
2022-11-08T13:26:16.888Z,8.05
2022-11-08T13:31:20.524Z,8.27
2022-11-08T13:41:06.793Z,8.09
2022-11-08T13:41:46.705Z,8.09
2022-11-08T13:46:46.635Z,8.13
2022-11-08T13:47:26.544Z,8.13
2022-11-08T13:52:05.330Z,8.13
2022-11-08T13:56:16.798Z,8.13
2022-11-08T14:01:38.519Z,8.15
2022-11-08T14:06:50.653Z,8.15
2022-11-08T14:07:40.588Z,8.15
2022-11-08T14:17:23.235Z,8.15
2022-11-08T14:23:41.093Z,8.02
2022-11-08T14:28:45.649Z,8.11
2022-11-08T14:29:25.583Z,8.11
2022-11-08T14:34:04.368Z,8.11
2022-11-08T14:34:44.297Z,8.11
2022-11-08T14:39:35.279Z,8.19
2022-11-08T14:40:15.257Z,8.19
2022-11-08T14:44:50.116Z,8.19
2022-11-08T14:50:47.250Z,8.02
2022-11-08T14:52:17.231Z,8.02
2022-11-08T14:56:15.625Z,8.02
2022-11-08T15:04:47.460Z,7.91
2022-11-08T15:10:03.758Z,7.89
2022-11-08T15:10:53.758Z,7.89
2022-11-08T15:15:19.744Z,7.89
2022-11-08T15:16:09.747Z,7.89
2022-11-08T15:20:35.894Z,7.82
2022-11-08T15:21:25.900Z,7.82
2022-11-08T15:25:51.416Z,7.82
2022-11-08T15:26:41.422Z,7.82
2022-11-08T15:31:06.303Z,7.76
2022-11-08T15:32:01.048Z,7.76
2022-11-08T15:36:22.470Z,7.76
2022-11-08T15:37:14.739Z,7.76
2022-11-08T15:41:43.281Z,7.81
2022-11-08T15:42:28.612Z,7.81
2022-11-08T15:47:01.960Z,7.81
2022-11-08T15:47:44.804Z,7.81
2022-11-08T15:52:21.738Z,7.91
2022-11-08T15:53:01.579Z,7.91
2022-11-08T15:57:38.759Z,7.8
2022-11-08T15:58:19.033Z,7.8
2022-11-08T16:02:55.570Z,7.8
2022-11-08T16:08:56.589Z,7.92
2022-11-08T16:13:13.055Z,7.92
2022-11-08T16:18:27.898Z,7.87
2022-11-08T16:24:08.562Z,7.87
2022-11-08T16:24:51.743Z,7.87
2022-11-08T16:29:54.120Z,7.99
2022-11-08T16:35:35.883Z,7.99
2022-11-08T16:44:55.246Z,7.96
2022-11-08T16:50:22.925Z,8.04
2022-11-08T16:55:32.041Z,8.04
2022-11-08T17:00:44.172Z,7.94
2022-11-08T17:05:50.280Z,7.94
2022-11-08T17:11:02.449Z,7.99
2022-11-08T17:16:17.334Z,7.99
2022-11-08T17:21:46.191Z,7.82
2022-11-08T17:26:47.723Z,7.82
2022-11-08T17:32:03.291Z,7.83
2022-11-08T17:37:18.773Z,7.83
2022-11-08T17:42:38.184Z,8.01
2022-11-08T17:47:50.485Z,8.01
2022-11-08T17:53:05.345Z,7.86
2022-11-08T17:58:20.877Z,7.86
2022-11-08T18:03:37.116Z,7.88
2022-11-08T18:08:52.546Z,7.88
2022-11-08T18:14:07.461Z,8.05
2022-11-08T18:19:23.581Z,7.88
2022-11-08T18:24:39.099Z,7.88
2022-11-08T18:29:55.261Z,7.99
2022-11-08T18:35:10.778Z,7.99
2022-11-08T18:40:25.661Z,7.92
2022-11-08T18:44:01.216Z,7.92
2022-11-08T18:49:17.979Z,7.94
2022-11-08T18:54:34.356Z,7.94
2022-11-08T18:59:49.661Z,8.04
2022-11-08T19:05:05.190Z,8.04
2022-11-08T19:10:20.700Z,8.02
2022-11-08T19:15:35.602Z,8.02
2022-11-08T19:20:51.098Z,7.99
2022-11-08T19:26:06.640Z,7.99
2022-11-08T19:31:22.812Z,7.9
2022-11-08T19:36:38.925Z,7.9
2022-11-08T19:41:10.863Z,7.89
2022-11-08T19:45:35.594Z,7.89
2022-11-08T19:50:44.043Z,8.03
2022-11-08T19:55:53.804Z,8.03
2022-11-08T20:01:02.927Z,7.9
2022-11-08T20:06:11.407Z,7.9
2022-11-08T20:11:21.166Z,7.92
2022-11-08T20:16:29.647Z,7.92
2022-11-08T20:21:38.791Z,7.87
2022-11-08T20:26:47.260Z,7.87
2022-11-08T20:31:56.803Z,7.88
2022-11-08T20:37:04.202Z,7.88
2022-11-08T20:42:14.019Z,7.88
2022-11-08T20:47:23.722Z,7.88
2022-11-08T20:52:32.840Z,8.17
2022-11-08T20:57:41.998Z,8.17
2022-11-08T21:03:38.978Z,8.06
2022-11-08T21:10:44.369Z,8.06
2022-11-08T21:14:13.668Z,8.07
2022-11-08T21:19:29.156Z,8.07
2022-11-08T21:24:45.590Z,7.88
2022-11-08T21:29:12.274Z,7.97
2022-11-08T21:33:45.221Z,7.97
2022-11-08T21:38:53.655Z,7.79
2022-11-08T21:44:03.407Z,7.79
2022-11-08T21:49:12.523Z,7.85
2022-11-08T21:54:22.283Z,7.85
2022-11-08T21:59:30.780Z,7.82
2022-11-08T22:04:40.532Z,7.82
2022-11-08T22:09:49.695Z,7.67
2022-11-08T22:14:58.126Z,7.67
2022-11-08T22:20:14.707Z,7.94
2022-11-08T22:25:15.715Z,7.94
2022-11-08T22:30:26.130Z,7.86
2022-11-08T22:35:36.524Z,7.86
2022-11-08T22:40:46.287Z,7.91
2022-11-08T22:46:04.064Z,7.91
2022-11-08T22:51:18.969Z,7.84
2022-11-08T22:56:34.460Z,7.84
2022-11-08T23:01:50.618Z,7.84
2022-11-08T23:07:06.834Z,7.84
2022-11-08T23:12:22.299Z,7.98
2022-11-08T23:17:38.461Z,7.98
2022-11-08T23:22:53.364Z,7.9
2022-11-08T23:28:09.492Z,7.9
2022-11-08T23:33:24.383Z,7.99
2022-11-08T23:38:39.902Z,7.99
2022-11-08T23:43:54.781Z,7.96
2022-11-08T23:48:21.720Z,7.96
2022-11-08T23:52:53.989Z,7.91
2022-11-08T23:58:06.746Z,7.91
